Time;durP1;ratioP1;P1;durP2;ratioP2;P2;SDS_P1;SDS_P2;PMS_P1;PMS_P2;Temp;Humidity;BMP_temperature;BMP_pressure;BME280_temperature;BME280_humidity;BME280_pressure;Samples;Min_cycle;Max_cycle;Signal;HPM_P1;HPM_P2
2021/01/22 00:02:19;;;;;;;;;;;9.50;62.30;;;;;;5106379;28;20196;-66
2021/01/22 00:04:45;;;;;;;;;;;9.50;62.30;;;;;;5106309;28;19925;-66
2021/01/22 00:07:11;;;;;;;;;;;9.50;62.30;;;;;;5106298;28;19938;-67
2021/01/22 00:09:36;;;;;;;;;;;9.50;62.30;;;;;;5106246;28;20171;-68
2021/01/22 00:12:03;;;;;;;;;;;9.50;62.30;;;;;;5106229;28;19907;-66
2021/01/22 00:14:29;;;;;;;;;;;9.50;62.30;;;;;;5106128;28;19908;-67
2021/01/22 00:16:54;;;;;;;;;;;9.50;62.30;;;;;;5106179;28;19914;-67
2021/01/22 00:19:20;;;;;;;;;;;9.50;62.30;;;;;;5106080;28;19942;-66
2021/01/22 00:21:45;;;;;;;;;;;9.50;62.30;;;;;;5104875;28;19942;-66
2021/01/22 00:24:11;;;;;;;;;;;9.50;62.30;;;;;;5105811;28;19912;-67
2021/01/22 00:26:36;;;;;;;;;;;9.50;62.30;;;;;;5105952;28;20210;-68
2021/01/22 00:29:02;;;;;;;;;;;9.50;62.30;;;;;;5105937;28;19907;-69
2021/01/22 00:31:27;;;;;;;;;;;9.50;62.40;;;;;;5105885;28;20113;-67
2021/01/22 00:33:53;;;;;;;;;;;9.40;62.30;;;;;;5105805;28;20247;-68
2021/01/22 00:36:18;;;;;;;;;;;9.50;62.30;;;;;;5104551;28;20238;-66
2021/01/22 00:38:44;;;;;;;;;;;9.50;62.30;;;;;;5105781;28;19908;-68
2021/01/22 00:41:10;;;;;;;;;;;9.50;62.20;;;;;;5105622;28;19912;-66
2021/01/22 00:43:35;;;;;;;;;;;9.50;62.30;;;;;;5105596;28;19908;-67
2021/01/22 00:46:01;;;;;;;;;;;9.50;62.30;;;;;;5105583;28;19922;-68
2021/01/22 00:48:26;;;;;;;;;;;9.40;62.30;;;;;;5105491;28;19900;-68
2021/01/22 00:50:52;;;;;;;;;;;9.50;62.30;;;;;;5105450;28;20045;-67
2021/01/22 00:53:17;;;;;;;;;;;9.50;62.30;;;;;;5104908;28;19926;-68
2021/01/22 00:55:43;;;;;;;;;;;9.50;62.90;;;;;;5104623;28;19907;-68
2021/01/22 00:58:09;;;;;;;;;;;9.50;62.30;;;;;;5105300;28;19908;-67
2021/01/22 01:00:35;;;;;;;;;;;9.50;62.30;;;;;;5105288;28;20105;-64
2021/01/22 01:03:00;;;;;;;;;;;9.40;62.30;;;;;;5105266;28;19922;-68
2021/01/22 01:05:26;;;;;;;;;;;9.40;62.30;;;;;;5105161;28;20070;-69
2021/01/22 01:07:51;;;;;;;;;;;9.40;62.30;;;;;;5105150;28;19935;-68
2021/01/22 01:10:17;;;;;;;;;;;9.40;62.30;;;;;;5105117;28;19990;-68
2021/01/22 01:12:43;;;;;;;;;;;9.40;62.30;;;;;;5105122;28;19900;-67
2021/01/22 01:15:08;;;;;;;;;;;9.40;62.40;;;;;;5105018;28;19911;-65
2021/01/22 01:17:34;;;;;;;;;;;9.40;62.30;;;;;;5104989;28;20193;-66
2021/01/22 01:20:00;;;;;;;;;;;9.40;62.30;;;;;;5104886;28;19900;-66
2021/01/22 01:22:25;;;;;;;;;;;9.40;62.40;;;;;;5104902;28;20096;-66
2021/01/22 01:24:51;;;;;;;;;;;9.40;62.40;;;;;;5104612;28;20208;-68
2021/01/22 01:27:17;;;;;;;;;;;9.40;62.30;;;;;;5104751;28;19900;-68
2021/01/22 01:29:42;;;;;;;;;;;9.40;63.00;;;;;;5104767;28;19967;-67
2021/01/22 01:32:08;;;;;;;;;;;9.40;62.30;;;;;;5104719;28;19989;-66
2021/01/22 01:34:33;;;;;;;;;;;9.40;62.40;;;;;;5104718;28;19908;-66
2021/01/22 01:36:59;;;;;;;;;;;9.40;62.30;;;;;;5104555;28;20104;-67
2021/01/22 01:39:24;;;;;;;;;;;9.50;62.40;;;;;;5104530;28;20193;-65
2021/01/22 01:41:50;;;;;;;;;;;9.50;62.40;;;;;;5104483;28;19927;-66
2021/01/22 01:44:16;;;;;;;;;;;9.40;62.40;;;;;;5104360;28;19904;-65
2021/01/22 01:46:41;;;;;;;;;;;9.40;62.40;;;;;;5104454;28;19900;-68
2021/01/22 01:49:07;;;;;;;;;;;9.40;62.40;;;;;;5104359;28;19900;-69
2021/01/22 01:51:32;;;;;;;;;;;9.40;62.40;;;;;;5104298;28;19914;-67
2021/01/22 01:53:58;;;;;;;;;;;9.40;62.40;;;;;;5104217;28;20104;-64
2021/01/22 01:56:24;;;;;;;;;;;9.40;62.40;;;;;;5104167;28;20322;-67
2021/01/22 01:58:50;;;;;;;;;;;9.40;62.40;;;;;;5104134;28;20205;-67
2021/01/22 02:01:17;;;;;;;;;;;9.40;62.40;;;;;;5104181;28;19975;-67
2021/01/22 02:03:43;;;;;;;;;;;9.40;62.50;;;;;;5103977;28;19911;-68
2021/01/22 02:06:08;;;;;;;;;;;9.40;62.40;;;;;;5103713;28;19939;-67
2021/01/22 02:08:34;;;;;;;;;;;9.40;62.50;;;;;;5104011;28;19908;-66
2021/01/22 02:11:01;;;;;;;;;;;9.40;62.40;;;;;;5103925;28;19939;-67
2021/01/22 02:13:28;;;;;;;;;;;9.40;62.40;;;;;;5103908;28;19922;-68
2021/01/22 02:15:54;;;;;;;;;;;9.40;62.50;;;;;;5103821;28;20298;-68
2021/01/22 02:18:20;;;;;;;;;;;9.40;62.50;;;;;;5103778;28;20264;-65
2021/01/22 02:20:58;;;;;;;;;;;9.40;62.50;;;;;;5103737;28;19922;-65
2021/01/22 02:23:24;;;;;;;;;;;9.40;62.40;;;;;;5103483;28;19938;-67
2021/01/22 02:25:50;;;;;;;;;;;9.40;62.40;;;;;;5103658;28;19908;-68
2021/01/22 02:28:16;;;;;;;;;;;9.40;62.40;;;;;;5103625;28;20204;-66
2021/01/22 02:30:43;;;;;;;;;;;9.40;62.50;;;;;;5103597;28;19907;-67
2021/01/22 02:33:09;;;;;;;;;;;9.40;62.40;;;;;;5103513;28;20196;-62
2021/01/22 02:35:35;;;;;;;;;;;9.40;62.40;;;;;;5103505;28;19943;-67
2021/01/22 02:38:01;;;;;;;;;;;9.40;62.50;;;;;;5103439;28;20174;-67
2021/01/22 02:40:28;;;;;;;;;;;9.40;62.40;;;;;;5103353;28;19906;-68
2021/01/22 02:42:54;;;;;;;;;;;9.40;62.40;;;;;;5103361;28;20120;-66
2021/01/22 02:45:20;;;;;;;;;;;9.40;62.50;;;;;;5103187;28;19971;-66
2021/01/22 02:47:47;;;;;;;;;;;9.40;62.40;;;;;;5103308;28;19961;-64
2021/01/22 02:50:30;;;;;;;;;;;9.40;62.50;;;;;;5103246;28;19935;-68
2021/01/22 02:52:58;;;;;;;;;;;9.40;62.40;;;;;;5103230;28;20215;-67
2021/01/22 02:55:23;;;;;;;;;;;9.40;62.50;;;;;;5103159;28;19908;-65
2021/01/22 02:57:52;;;;;;;;;;;9.40;62.50;;;;;;5103071;28;20097;-68
2021/01/22 03:00:20;;;;;;;;;;;9.40;62.50;;;;;;5103072;28;19900;-66
2021/01/22 03:03:02;;;;;;;;;;;9.40;62.40;;;;;;5103032;28;19907;-66
2021/01/22 03:05:30;;;;;;;;;;;9.40;62.50;;;;;;5102995;28;19911;-67
2021/01/22 03:08:00;;;;;;;;;;;9.40;62.40;;;;;;5103349;28;19950;-66
2021/01/22 03:10:26;;;;;;;;;;;9.40;62.50;;;;;;5103186;28;19915;-66
2021/01/22 03:12:52;;;;;;;;;;;9.40;62.60;;;;;;5102922;28;19904;-67
2021/01/22 03:15:21;;;;;;;;;;;9.40;62.40;;;;;;5102825;28;19907;-66
2021/01/22 03:17:47;;;;;;;;;;;9.40;62.50;;;;;;5102161;28;20212;-66
2021/01/22 03:20:16;;;;;;;;;;;9.40;62.40;;;;;;5102765;28;19900;-66
2021/01/22 03:22:42;;;;;;;;;;;9.40;62.50;;;;;;5102766;28;19900;-67
2021/01/22 03:25:10;;;;;;;;;;;9.40;62.50;;;;;;5102538;28;20136;-67
2021/01/22 03:27:36;;;;;;;;;;;9.40;62.50;;;;;;5102735;28;19919;-67
2021/01/22 03:30:02;;;;;;;;;;;9.40;62.50;;;;;;5102679;28;19991;-69
2021/01/22 03:32:28;;;;;;;;;;;9.40;62.50;;;;;;5102619;28;19931;-64
2021/01/22 03:34:54;;;;;;;;;;;9.40;62.60;;;;;;5102647;28;20203;-66
2021/01/22 03:37:19;;;;;;;;;;;9.40;62.60;;;;;;5102618;28;19946;-67
2021/01/22 03:39:45;;;;;;;;;;;9.40;62.60;;;;;;5102631;28;19900;-66
2021/01/22 03:42:10;;;;;;;;;;;9.40;62.60;;;;;;5102542;28;19967;-66
2021/01/22 03:44:36;;;;;;;;;;;9.40;62.60;;;;;;5102430;28;19904;-66
2021/01/22 03:47:02;;;;;;;;;;;9.40;62.50;;;;;;5102528;28;19934;-66
2021/01/22 03:49:28;;;;;;;;;;;9.40;62.60;;;;;;5102736;28;19900;-65
2021/01/22 03:51:53;;;;;;;;;;;9.40;62.60;;;;;;5102476;28;20130;-66
2021/01/22 03:54:19;;;;;;;;;;;9.40;62.60;;;;;;5102484;28;19949;-66
2021/01/22 03:56:44;;;;;;;;;;;9.40;62.50;;;;;;5102440;28;19908;-66
2021/01/22 03:59:10;;;;;;;;;;;9.40;62.50;;;;;;5102460;28;20323;-66
2021/01/22 04:01:36;;;;;;;;;;;9.40;62.50;;;;;;5102458;28;19935;-65
2021/01/22 04:04:01;;;;;;;;;;;9.40;62.50;;;;;;5102322;28;19904;-69
2021/01/22 04:06:27;;;;;;;;;;;9.40;62.50;;;;;;5102366;28;19969;-68
2021/01/22 04:08:52;;;;;;;;;;;9.40;62.60;;;;;;5102323;28;20192;-68
2021/01/22 04:11:18;;;;;;;;;;;9.40;62.60;;;;;;5102271;28;19930;-66
2021/01/22 04:13:44;;;;;;;;;;;9.40;63.20;;;;;;5102325;28;19908;-66
2021/01/22 04:16:10;;;;;;;;;;;9.40;62.60;;;;;;5102253;28;19934;-64
2021/01/22 04:18:36;;;;;;;;;;;9.40;62.60;;;;;;5102246;28;19907;-67
2021/01/22 04:21:01;;;;;;;;;;;9.40;62.60;;;;;;5102195;28;19900;-67
2021/01/22 04:23:27;;;;;;;;;;;9.40;62.60;;;;;;5101987;28;19942;-68
2021/01/22 04:25:52;;;;;;;;;;;9.40;62.70;;;;;;5102221;28;19922;-67
2021/01/22 04:28:18;;;;;;;;;;;9.40;62.70;;;;;;5102934;28;19908;-67
2021/01/22 04:30:44;;;;;;;;;;;9.40;62.70;;;;;;5105916;28;20103;-67
2021/01/22 04:33:10;;;;;;;;;;;9.40;62.60;;;;;;5105847;28;19912;-67
2021/01/22 04:35:36;;;;;;;;;;;9.40;62.70;;;;;;5105840;28;19906;-66
2021/01/22 04:38:01;;;;;;;;;;;9.40;62.60;;;;;;5105762;28;19936;-68
2021/01/22 04:40:27;;;;;;;;;;;9.40;62.60;;;;;;5105766;28;19971;-68
2021/01/22 04:42:52;;;;;;;;;;;9.40;62.60;;;;;;5105590;28;19903;-66
2021/01/22 04:45:18;;;;;;;;;;;9.40;62.60;;;;;;5105595;28;19918;-68
2021/01/22 04:47:44;;;;;;;;;;;9.40;62.60;;;;;;5105590;28;20193;-67
2021/01/22 04:50:10;;;;;;;;;;;9.40;62.70;;;;;;5105527;28;19960;-66
2021/01/22 04:52:36;;;;;;;;;;;9.30;62.60;;;;;;5105517;28;20184;-68
2021/01/22 04:55:03;;;;;;;;;;;9.30;62.60;;;;;;5105446;28;19922;-66
2021/01/22 04:57:30;;;;;;;;;;;9.40;62.70;;;;;;5105406;28;19908;-64
2021/01/22 04:59:56;;;;;;;;;;;9.40;62.60;;;;;;5105376;28;19907;-67
2021/01/22 05:02:22;;;;;;;;;;;9.40;62.70;;;;;;5105332;28;19936;-68
2021/01/22 05:04:48;;;;;;;;;;;9.40;62.80;;;;;;5105171;28;19904;-68
2021/01/22 05:07:14;;;;;;;;;;;9.30;62.60;;;;;;5105210;28;20223;-66
2021/01/22 05:09:40;;;;;;;;;;;9.30;62.70;;;;;;5105155;28;19908;-66
2021/01/22 05:12:06;;;;;;;;;;;9.40;62.70;;;;;;5105108;28;19966;-65
2021/01/22 05:14:33;;;;;;;;;;;9.30;62.70;;;;;;5105056;28;19908;-67
2021/01/22 05:17:08;;;;;;;;;;;9.40;62.70;;;;;;5105012;28;19950;-65
2021/01/22 05:19:35;;;;;;;;;;;9.30;62.70;;;;;;5105051;28;19908;-66
2021/01/22 05:22:01;;;;;;;;;;;9.40;62.70;;;;;;5104910;28;19904;-68
2021/01/22 05:24:27;;;;;;;;;;;9.30;62.60;;;;;;5104674;28;19912;-69
2021/01/22 05:26:59;;;;;;;;;;;9.30;62.80;;;;;;5104873;28;19966;-68
2021/01/22 05:29:25;;;;;;;;;;;9.30;62.70;;;;;;5104824;28;19990;-68
2021/01/22 05:31:50;;;;;;;;;;;9.30;62.70;;;;;;5104711;28;19900;-66
2021/01/22 05:34:16;;;;;;;;;;;9.30;62.70;;;;;;5104681;28;19900;-66
2021/01/22 05:36:41;;;;;;;;;;;9.30;62.70;;;;;;5104683;28;19971;-67
2021/01/22 05:39:17;;;;;;;;;;;9.30;62.70;;;;;;5104566;28;19900;-68
2021/01/22 05:41:49;;;;;;;;;;;9.30;62.70;;;;;;5103893;28;19935;-66
2021/01/22 05:44:24;;;;;;;;;;;9.30;62.70;;;;;;5104519;28;20269;-64
2021/01/22 05:47:19;;;;;;;;;;;9.30;63.30;;;;;;5104429;28;20158;-66
2021/01/22 05:49:53;;;;;;;;;;;9.30;63.30;;;;;;5099476;28;20307;-68
2021/01/22 05:52:22;;;;;;;;;;;9.30;62.70;;;;;;5104375;28;19929;-66
2021/01/22 05:54:48;;;;;;;;;;;9.30;62.70;;;;;;5104291;28;20091;-68
2021/01/22 05:57:13;;;;;;;;;;;9.30;62.80;;;;;;5103140;28;19975;-66
2021/01/22 05:59:39;;;;;;;;;;;9.30;62.70;;;;;;5104220;28;19914;-66
2021/01/22 06:02:23;;;;;;;;;;;9.30;62.80;;;;;;5104232;28;19911;-68
2021/01/22 06:05:05;;;;;;;;;;;9.30;62.80;;;;;;5104098;28;19912;-67
2021/01/22 06:07:30;;;;;;;;;;;9.30;62.70;;;;;;5104109;28;19967;-68
2021/01/22 06:09:56;;;;;;;;;;;9.30;62.80;;;;;;5103997;28;19923;-66
2021/01/22 06:12:22;;;;;;;;;;;9.30;62.80;;;;;;5103983;28;19900;-66
2021/01/22 06:14:47;;;;;;;;;;;9.30;62.80;;;;;;5103896;28;19975;-68
2021/01/22 06:17:13;;;;;;;;;;;9.30;62.80;;;;;;5103870;28;19900;-69
2021/01/22 06:19:40;;;;;;;;;;;9.30;62.80;;;;;;5103813;28;19915;-66
2021/01/22 06:22:16;;;;;;;;;;;9.30;62.70;;;;;;5103802;28;20180;-68
2021/01/22 06:24:42;;;;;;;;;;;9.30;62.80;;;;;;5103742;28;19957;-66
2021/01/22 06:27:08;;;;;;;;;;;9.30;62.80;;;;;;5103668;28;20188;-67
2021/01/22 06:29:36;;;;;;;;;;;9.30;63.40;;;;;;5103613;28;19929;-66
2021/01/22 06:32:02;;;;;;;;;;;9.30;62.80;;;;;;5103583;28;19907;-65
2021/01/22 06:34:28;;;;;;;;;;;9.30;62.80;;;;;;5103822;28;19907;-66
2021/01/22 06:36:55;;;;;;;;;;;9.30;62.80;;;;;;5103837;28;20100;-65
2021/01/22 06:39:21;;;;;;;;;;;9.30;62.80;;;;;;5102180;28;19907;-68
2021/01/22 06:41:47;;;;;;;;;;;9.30;62.80;;;;;;5103442;28;19900;-67
2021/01/22 06:44:12;;;;;;;;;;;9.30;62.80;;;;;;5103288;28;20122;-67
2021/01/22 06:46:38;;;;;;;;;;;9.30;62.80;;;;;;5103328;28;19900;-65
2021/01/22 06:49:04;;;;;;;;;;;9.30;62.80;;;;;;5103313;28;20200;-66
2021/01/22 06:51:31;;;;;;;;;;;9.30;62.80;;;;;;5102876;28;19916;-65
2021/01/22 06:54:20;;;;;;;;;;;9.30;62.80;;;;;;5102927;28;19971;-67
2021/01/22 06:56:48;;;;;;;;;;;9.30;62.80;;;;;;5103171;28;20234;-67
2021/01/22 06:59:29;;;;;;;;;;;9.30;62.80;;;;;;5103147;28;20081;-66
2021/01/22 07:01:55;;;;;;;;;;;9.30;62.70;;;;;;5103156;28;19907;-66
2021/01/22 07:04:33;;;;;;;;;;;9.30;62.80;;;;;;5102985;28;20214;-67
2021/01/22 07:07:01;;;;;;;;;;;9.30;62.80;;;;;;5103023;28;19929;-64
2021/01/22 07:09:46;;;;;;;;;;;9.30;62.80;;;;;;5103012;28;19966;-66
2021/01/22 07:12:12;;;;;;;;;;;9.30;62.80;;;;;;5102916;28;19900;-66
2021/01/22 07:14:39;;;;;;;;;;;9.30;62.80;;;;;;5102871;28;19900;-67
2021/01/22 07:17:21;;;;;;;;;;;9.30;62.80;;;;;;5102882;28;19975;-67
2021/01/22 07:19:48;;;;;;;;;;;9.30;62.80;;;;;;5102837;28;19932;-67
2021/01/22 07:22:14;;;;;;;;;;;9.30;62.80;;;;;;5102875;28;19915;-66
2021/01/22 07:24:41;;;;;;;;;;;9.30;62.80;;;;;;5102551;28;19927;-67
2021/01/22 07:27:10;;;;;;;;;;;9.30;62.80;;;;;;5102779;28;19900;-67
2021/01/22 07:29:35;;;;;;;;;;;9.30;62.80;;;;;;5102736;28;19900;-66
2021/01/22 07:32:02;;;;;;;;;;;9.30;62.80;;;;;;5102643;28;19946;-68
2021/01/22 07:34:36;;;;;;;;;;;9.30;62.90;;;;;;5102698;28;19904;-68
2021/01/22 07:37:05;;;;;;;;;;;9.30;62.80;;;;;;5102629;28;20112;-66
2021/01/22 07:39:31;;;;;;;;;;;9.30;62.80;;;;;;5102657;28;19907;-67
2021/01/22 07:42:07;;;;;;;;;;;9.30;62.80;;;;;;5102575;28;19900;-67
2021/01/22 07:44:33;;;;;;;;;;;9.30;62.80;;;;;;5102507;28;19904;-68
2021/01/22 07:46:58;;;;;;;;;;;9.40;62.90;;;;;;5102554;28;19949;-66
2021/01/22 07:49:24;;;;;;;;;;;9.30;62.80;;;;;;5102555;28;19908;-67
2021/01/22 07:51:50;;;;;;;;;;;9.30;62.70;;;;;;5102509;28;19908;-65
2021/01/22 07:54:15;;;;;;;;;;;9.30;62.70;;;;;;5102505;28;19900;-66
2021/01/22 07:56:42;;;;;;;;;;;9.40;62.70;;;;;;5102483;28;19967;-68
2021/01/22 07:59:10;;;;;;;;;;;9.30;62.80;;;;;;5102434;28;19946;-67
2021/01/22 08:01:38;;;;;;;;;;;9.40;62.80;;;;;;5102469;28;19920;-66
2021/01/22 08:04:04;;;;;;;;;;;9.40;62.70;;;;;;5104444;28;20199;-67
2021/01/22 08:06:59;;;;;;;;;;;9.40;62.70;;;;;;5106385;28;20170;-67
2021/01/22 08:09:25;;;;;;;;;;;9.30;62.60;;;;;;5100809;28;20391;-66
2021/01/22 08:12:05;;;;;;;;;;;9.40;62.60;;;;;;5106311;28;19921;-68
2021/01/22 08:14:30;;;;;;;;;;;9.40;62.60;;;;;;5106255;28;20118;-67
2021/01/22 08:16:56;;;;;;;;;;;9.40;62.60;;;;;;5106265;28;19906;-66
2021/01/22 08:19:25;;;;;;;;;;;9.40;63.30;;;;;;5106415;28;19900;-65
2021/01/22 08:21:51;;;;;;;;;;;9.40;62.70;;;;;;5106127;28;19900;-66
2021/01/22 08:24:17;;;;;;;;;;;9.40;62.80;;;;;;5105829;28;20148;-67
2021/01/22 08:26:42;;;;;;;;;;;9.30;62.60;;;;;;5106263;28;19937;-67
2021/01/22 08:29:09;;;;;;;;;;;9.40;62.60;;;;;;5105964;28;19908;-67
2021/01/22 08:31:37;;;;;;;;;;;9.40;62.60;;;;;;5105938;28;19915;-65
2021/01/22 08:34:03;;;;;;;;;;;9.40;62.80;;;;;;5105911;28;19945;-67
2021/01/22 08:36:29;;;;;;;;;;;9.40;62.60;;;;;;5105852;28;19912;-68
2021/01/22 08:38:56;;;;;;;;;;;9.40;62.60;;;;;;5105852;28;19915;-67
2021/01/22 08:41:22;;;;;;;;;;;9.40;62.70;;;;;;5105699;28;19933;-67
2021/01/22 08:43:49;;;;;;;;;;;9.40;62.60;;;;;;5105638;28;20125;-65
2021/01/22 08:46:15;;;;;;;;;;;9.40;62.60;;;;;;5105676;28;20373;-66
2021/01/22 08:48:41;;;;;;;;;;;9.40;62.70;;;;;;5105606;28;19904;-68
2021/01/22 08:51:07;;;;;;;;;;;9.40;62.70;;;;;;5105630;28;19998;-68
2021/01/22 08:53:33;;;;;;;;;;;9.40;62.80;;;;;;5105524;28;20095;-66
2021/01/22 08:56:08;;;;;;;;;;;9.40;62.80;;;;;;5105751;28;19971;-64
2021/01/22 08:58:34;;;;;;;;;;;9.30;62.70;;;;;;5105433;28;20212;-66
2021/01/22 09:00:59;;;;;;;;;;;9.40;62.70;;;;;;5105364;28;19945;-65
2021/01/22 09:03:25;;;;;;;;;;;9.30;62.80;;;;;;5105328;28;19900;-69
2021/01/22 09:05:51;;;;;;;;;;;9.40;62.80;;;;;;5105188;28;19962;-68
2021/01/22 09:08:22;;;;;;;;;;;9.40;62.70;;;;;;5105271;28;19907;-69
2021/01/22 09:10:49;;;;;;;;;;;9.40;62.70;;;;;;5105206;28;19904;-67
2021/01/22 09:13:16;;;;;;;;;;;9.40;62.80;;;;;;5104765;28;20331;-67
2021/01/22 09:15:42;;;;;;;;;;;9.40;62.60;;;;;;5102802;28;20183;-68
2021/01/22 09:18:19;;;;;;;;;;;9.40;62.60;;;;;;5105055;28;19922;-68
2021/01/22 09:20:45;;;;;;;;;;;9.40;62.80;;;;;;5105029;28;19908;-67
2021/01/22 09:23:10;;;;;;;;;;;9.40;62.70;;;;;;5104787;28;19919;-67
2021/01/22 09:25:36;;;;;;;;;;;9.40;62.70;;;;;;5104879;28;19910;-67
2021/01/22 09:28:02;;;;;;;;;;;9.40;62.80;;;;;;5104869;28;19900;-66
2021/01/22 09:30:28;;;;;;;;;;;9.40;62.80;;;;;;5104804;28;19922;-66
2021/01/22 09:32:55;;;;;;;;;;;9.40;62.80;;;;;;5104783;28;19908;-65
2021/01/22 09:35:21;;;;;;;;;;;9.40;62.70;;;;;;5103559;28;19900;-67
2021/01/22 09:37:47;;;;;;;;;;;9.40;62.60;;;;;;5104659;28;19904;-68
2021/01/22 09:40:13;;;;;;;;;;;9.40;62.60;;;;;;5104652;28;19900;-68
2021/01/22 09:42:39;;;;;;;;;;;9.40;62.70;;;;;;5104587;28;19915;-66
2021/01/22 09:45:05;;;;;;;;;;;9.40;62.70;;;;;;5104528;28;19971;-67
2021/01/22 09:47:31;;;;;;;;;;;9.40;62.70;;;;;;5104453;28;19922;-68
2021/01/22 09:49:57;;;;;;;;;;;9.40;62.70;;;;;;5104424;28;19900;-68
2021/01/22 09:52:22;;;;;;;;;;;9.40;63.30;;;;;;5104407;28;20087;-67
2021/01/22 09:54:48;;;;;;;;;;;9.40;62.70;;;;;;5104321;28;19963;-66
2021/01/22 09:57:14;;;;;;;;;;;9.40;62.70;;;;;;5104288;28;19935;-65
2021/01/22 09:59:40;;;;;;;;;;;9.40;62.70;;;;;;5104200;28;20289;-65
2021/01/22 10:02:05;;;;;;;;;;;9.40;62.70;;;;;;5104248;28;20069;-66
2021/01/22 10:04:33;;;;;;;;;;;9.40;62.70;;;;;;5104096;28;20099;-68
2021/01/22 10:06:59;;;;;;;;;;;9.40;62.70;;;;;;5104104;28;19908;-66
2021/01/22 10:09:25;;;;;;;;;;;9.40;62.60;;;;;;5104042;28;19908;-67
2021/01/22 10:11:50;;;;;;;;;;;9.40;62.60;;;;;;5104017;28;19971;-68
2021/01/22 10:14:16;;;;;;;;;;;9.40;62.70;;;;;;5103920;28;20188;-68
2021/01/22 10:16:42;;;;;;;;;;;9.40;62.70;;;;;;5103908;28;20092;-66
2021/01/22 10:19:07;;;;;;;;;;;9.40;62.70;;;;;;5103881;28;20108;-68
2021/01/22 10:21:33;;;;;;;;;;;9.40;62.70;;;;;;5103845;28;19907;-66
2021/01/22 10:23:58;;;;;;;;;;;9.40;62.60;;;;;;5103497;28;20204;-63
2021/01/22 10:26:24;;;;;;;;;;;9.40;62.70;;;;;;5103538;28;19983;-68
2021/01/22 10:28:50;;;;;;;;;;;9.40;62.70;;;;;;5103630;28;19974;-66
2021/01/22 10:31:16;;;;;;;;;;;9.40;62.60;;;;;;5103635;28;20149;-68
2021/01/22 10:33:42;;;;;;;;;;;9.40;62.70;;;;;;5103595;28;19907;-67
2021/01/22 10:36:08;;;;;;;;;;;9.40;62.60;;;;;;5103572;28;19900;-66
2021/01/22 10:38:34;;;;;;;;;;;9.40;62.70;;;;;;5103496;28;19975;-68
2021/01/22 10:41:00;;;;;;;;;;;9.40;63.30;;;;;;5103463;28;19978;-67
2021/01/22 10:43:25;;;;;;;;;;;9.40;62.70;;;;;;5103456;28;19900;-65
2021/01/22 10:45:51;;;;;;;;;;;9.40;62.70;;;;;;5103305;28;19911;-67
2021/01/22 10:48:17;;;;;;;;;;;9.40;62.60;;;;;;5103564;28;20226;-68
2021/01/22 10:50:43;;;;;;;;;;;9.40;62.70;;;;;;5103273;28;19974;-66
2021/01/22 10:53:09;;;;;;;;;;;9.40;62.70;;;;;;5103209;28;19915;-66
2021/01/22 10:55:34;;;;;;;;;;;9.40;62.70;;;;;;5103281;28;19980;-67
2021/01/22 10:58:00;;;;;;;;;;;9.40;62.70;;;;;;5103221;28;19919;-66
2021/01/22 11:00:26;;;;;;;;;;;9.40;62.80;;;;;;5103104;28;19900;-68
2021/01/22 11:02:51;;;;;;;;;;;9.40;62.70;;;;;;5103128;28;20218;-69
2021/01/22 11:05:17;;;;;;;;;;;9.40;62.80;;;;;;5102953;28;20220;-68
2021/01/22 11:07:43;;;;;;;;;;;9.40;62.70;;;;;;5103043;28;19900;-68
2021/01/22 11:10:09;;;;;;;;;;;9.40;62.70;;;;;;5102977;28;19907;-67
2021/01/22 11:12:34;;;;;;;;;;;9.40;62.60;;;;;;5102956;28;19948;-67
2021/01/22 11:15:00;;;;;;;;;;;9.40;62.60;;;;;;5102926;28;19907;-65
2021/01/22 11:17:25;;;;;;;;;;;9.40;63.20;;;;;;5102905;28;19904;-66
2021/01/22 11:19:51;;;;;;;;;;;9.40;62.70;;;;;;5102942;28;19907;-67
2021/01/22 11:22:17;;;;;;;;;;;9.40;62.60;;;;;;5102830;28;19942;-68
2021/01/22 11:24:43;;;;;;;;;;;9.40;62.70;;;;;;5102607;28;19919;-67
2021/01/22 11:27:08;;;;;;;;;;;9.40;62.70;;;;;;5102779;28;19979;-63
2021/01/22 11:29:34;;;;;;;;;;;9.40;62.60;;;;;;5102813;28;19908;-66
2021/01/22 11:32:00;;;;;;;;;;;9.40;62.60;;;;;;5102730;28;20133;-66
2021/01/22 11:34:25;;;;;;;;;;;9.40;62.60;;;;;;5102754;28;19997;-66
2021/01/22 11:36:51;;;;;;;;;;;9.40;62.50;;;;;;5102714;28;20188;-68
2021/01/22 11:39:16;;;;;;;;;;;9.40;62.50;;;;;;5107869;28;19931;-68
2021/01/22 11:41:42;;;;;;;;;;;9.40;62.50;;;;;;5109458;28;20094;-67
2021/01/22 11:44:09;;;;;;;;;;;9.50;62.40;;;;;;5109347;28;19911;-68
2021/01/22 11:46:36;;;;;;;;;;;9.40;62.40;;;;;;5109415;28;20000;-68
2021/01/22 11:49:01;;;;;;;;;;;9.40;62.50;;;;;;5109607;28;19900;-67
2021/01/22 11:51:27;;;;;;;;;;;9.40;62.50;;;;;;5109364;28;20037;-67
2021/01/22 11:53:52;;;;;;;;;;;9.40;62.50;;;;;;5109380;28;20096;-67
2021/01/22 11:56:18;;;;;;;;;;;9.40;62.50;;;;;;5109311;28;19908;-67
2021/01/22 11:58:44;;;;;;;;;;;9.40;62.50;;;;;;5109328;28;19942;-64
2021/01/22 12:01:09;;;;;;;;;;;9.40;62.50;;;;;;5109223;28;19908;-65
2021/01/22 12:03:35;;;;;;;;;;;9.40;62.50;;;;;;5109246;28;19982;-66
2021/01/22 12:06:00;;;;;;;;;;;9.50;62.50;;;;;;5109123;28;19911;-67
2021/01/22 12:08:26;;;;;;;;;;;9.40;62.40;;;;;;5109212;28;19969;-65
2021/01/22 12:10:51;;;;;;;;;;;9.40;62.40;;;;;;5109169;28;19900;-68
2021/01/22 12:13:17;;;;;;;;;;;9.40;62.40;;;;;;5109171;28;19923;-68
2021/01/22 12:15:43;;;;;;;;;;;9.50;62.50;;;;;;5109078;28;19900;-68
2021/01/22 12:18:08;;;;;;;;;;;9.40;62.50;;;;;;5109136;28;19908;-66
2021/01/22 12:20:34;;;;;;;;;;;9.40;62.40;;;;;;5109076;28;19908;-66
2021/01/22 12:22:59;;;;;;;;;;;9.50;62.70;;;;;;5107696;28;19915;-63
2021/01/22 12:25:25;;;;;;;;;;;9.40;62.60;;;;;;5107787;28;19904;-65
2021/01/22 12:27:50;;;;;;;;;;;9.50;62.60;;;;;;5109049;28;19922;-68
2021/01/22 12:30:16;;;;;;;;;;;9.50;62.60;;;;;;5108946;28;19899;-67
2021/01/22 12:32:42;;;;;;;;;;;9.50;62.60;;;;;;5108997;28;19942;-68
2021/01/22 12:35:08;;;;;;;;;;;9.40;62.60;;;;;;5108963;28;19907;-68
2021/01/22 12:37:33;;;;;;;;;;;9.40;62.50;;;;;;5108945;28;20444;-67
2021/01/22 12:39:59;;;;;;;;;;;9.40;62.70;;;;;;5108915;28;19930;-65
2021/01/22 12:42:24;;;;;;;;;;;9.40;62.60;;;;;;5108920;28;19908;-64
2021/01/22 12:44:50;;;;;;;;;;;9.50;62.80;;;;;;5108831;28;19904;-66
2021/01/22 12:47:15;;;;;;;;;;;9.40;63.20;;;;;;5108878;28;19900;-66
2021/01/22 12:49:41;;;;;;;;;;;9.40;62.70;;;;;;5107634;28;19900;-68
2021/01/22 12:52:06;;;;;;;;;;;9.40;62.60;;;;;;5105632;28;19904;-68
2021/01/22 12:54:32;;;;;;;;;;;9.40;62.70;;;;;;5105554;28;19900;-67
2021/01/22 12:56:58;;;;;;;;;;;9.40;62.70;;;;;;5105564;28;20069;-66
2021/01/22 12:59:23;;;;;;;;;;;9.40;62.60;;;;;;5105459;28;20251;-65
2021/01/22 13:01:49;;;;;;;;;;;9.40;62.80;;;;;;5105414;28;19935;-66
2021/01/22 13:04:15;;;;;;;;;;;9.40;62.70;;;;;;5105329;28;19912;-66
2021/01/22 13:06:40;;;;;;;;;;;9.40;62.90;;;;;;5105276;28;19945;-65
2021/01/22 13:09:06;;;;;;;;;;;9.40;62.90;;;;;;5104098;28;19966;-66
2021/01/22 13:11:31;;;;;;;;;;;9.40;62.70;;;;;;5105252;28;19946;-68
2021/01/22 13:13:57;;;;;;;;;;;9.40;62.60;;;;;;5105238;28;19900;-67
2021/01/22 13:16:22;;;;;;;;;;;9.50;62.70;;;;;;5103940;28;19967;-66
2021/01/22 13:18:48;;;;;;;;;;;9.50;62.60;;;;;;5105162;28;19900;-68
2021/01/22 13:21:13;;;;;;;;;;;9.50;62.60;;;;;;5105143;28;19915;-64
2021/01/22 13:23:41;;;;;;;;;;;9.50;62.60;;;;;;5104791;28;20119;-67
2021/01/22 13:26:07;;;;;;;;;;;9.50;62.50;;;;;;5105014;28;19900;-66
2021/01/22 13:28:33;;;;;;;;;;;9.50;62.30;;;;;;5104939;28;19904;-67
2021/01/22 13:30:58;;;;;;;;;;;9.50;62.40;;;;;;5104903;28;20139;-67
2021/01/22 13:33:24;;;;;;;;;;;9.60;62.30;;;;;;5104837;28;19965;-67
2021/01/22 13:35:49;;;;;;;;;;;9.60;62.20;;;;;;5104806;28;19915;-64
2021/01/22 13:38:15;;;;;;;;;;;9.60;62.20;;;;;;5104753;28;20100;-64
2021/01/22 13:40:40;;;;;;;;;;;9.70;62.10;;;;;;5104696;28;19900;-67
2021/01/22 13:43:06;;;;;;;;;;;9.80;61.70;;;;;;5104606;28;19900;-67
2021/01/22 13:45:32;;;;;;;;;;;9.90;61.40;;;;;;5104553;28;19911;-66
2021/01/22 13:47:57;;;;;;;;;;;9.80;61.20;;;;;;5104537;28;19907;-67
2021/01/22 13:50:23;;;;;;;;;;;9.80;61.30;;;;;;5104534;28;19900;-68
2021/01/22 13:52:49;;;;;;;;;;;9.90;61.40;;;;;;5104425;28;19912;-65
2021/01/22 13:55:14;;;;;;;;;;;9.90;61.30;;;;;;5104474;28;20136;-67
2021/01/22 13:57:40;;;;;;;;;;;10.00;61.10;;;;;;5104370;28;19900;-68
2021/01/22 14:00:06;;;;;;;;;;;10.00;61.20;;;;;;5104364;28;20123;-66
2021/01/22 14:02:31;;;;;;;;;;;10.00;61.00;;;;;;5103706;28;19907;-66
2021/01/22 14:04:57;;;;;;;;;;;10.10;60.90;;;;;;5104135;28;19957;-67
2021/01/22 14:07:22;;;;;;;;;;;10.10;60.80;;;;;;5104152;28;19946;-68
2021/01/22 14:09:48;;;;;;;;;;;10.10;60.60;;;;;;5104093;28;19919;-66
2021/01/22 14:12:14;;;;;;;;;;;10.10;60.70;;;;;;5104070;28;19915;-64
2021/01/22 14:14:39;;;;;;;;;;;10.20;60.90;;;;;;5103983;28;19908;-67
2021/01/22 14:17:05;;;;;;;;;;;10.20;60.60;;;;;;5104006;28;19971;-65
2021/01/22 14:19:30;;;;;;;;;;;10.20;60.50;;;;;;5103891;28;19900;-67
2021/01/22 14:21:56;;;;;;;;;;;10.20;60.50;;;;;;5103908;28;19906;-66
2021/01/22 14:24:22;;;;;;;;;;;10.20;60.60;;;;;;5103559;28;19998;-68
2021/01/22 14:26:47;;;;;;;;;;;10.20;60.50;;;;;;5103810;28;20088;-67